createdAt,value
2019-02-27T00:02:11.326Z,9.77
2019-02-27T00:04:49.035Z,10.77
2019-02-27T00:07:21.490Z,10.67
2019-02-27T00:09:50.253Z,10.60
2019-02-27T00:12:19.331Z,9.37
2019-02-27T00:14:57.996Z,9.37
2019-02-27T00:17:27.134Z,9.23
2019-02-27T00:19:58.866Z,11.00
2019-02-27T00:22:27.625Z,9.70
2019-02-27T00:25:05.438Z,10.43
2019-02-27T00:27:34.129Z,10.60
2019-02-27T00:30:05.618Z,9.60
2019-02-27T00:32:34.498Z,11.07
2019-02-27T00:35:12.105Z,9.50
2019-02-27T00:37:40.879Z,10.13
2019-02-27T00:40:09.719Z,9.50
2019-02-27T00:42:38.396Z,10.20
2019-02-27T00:45:16.368Z,9.47
2019-02-27T00:47:45.060Z,10.97
2019-02-27T00:50:13.772Z,10.07
2019-02-27T00:52:42.481Z,10.13
2019-02-27T00:55:26.420Z,10.13
2019-02-27T00:57:55.872Z,10.00
2019-02-27T01:00:27.496Z,9.53
2019-02-27T01:02:56.218Z,10.73
2019-02-27T01:05:25.107Z,10.03
2019-02-27T01:08:04.292Z,10.67
2019-02-27T01:10:33.059Z,10.00
2019-02-27T01:13:01.991Z,9.90
2019-02-27T01:15:31.948Z,10.40
2019-02-27T01:18:09.594Z,9.70
2019-02-27T01:20:38.401Z,10.70
2019-02-27T01:23:10.869Z,11.50
2019-02-27T01:25:37.630Z,10.60
2019-02-27T01:28:15.790Z,9.63
2019-02-27T01:30:44.832Z,9.83
2019-02-27T01:33:13.624Z,10.27
2019-02-27T01:35:42.324Z,10.53
2019-02-27T01:38:20.181Z,11.00
2019-02-27T01:40:51.674Z,10.93
2019-02-27T01:43:19.682Z,10.30
2019-02-27T01:45:48.479Z,9.63
2019-02-27T01:48:26.643Z,10.23
2019-02-27T01:51:04.569Z,10.40
2019-02-27T01:53:35.076Z,9.80
2019-02-27T01:56:03.742Z,9.60
2019-02-27T01:58:32.518Z,9.63
2019-02-27T02:01:10.382Z,9.87
2019-02-27T02:03:39.129Z,10.70
2019-02-27T02:06:10.129Z,10.47
2019-02-27T02:08:39.330Z,10.47
2019-02-27T02:11:17.291Z,10.47
2019-02-27T02:14:42.868Z,11.20
2019-02-27T02:17:47.668Z,10.93
2019-02-27T02:21:15.829Z,10.20
2019-02-27T02:24:27.840Z,10.83
2019-02-27T02:27:07.758Z,10.43
2019-02-27T02:30:29.176Z,10.10
2019-02-27T02:37:04.189Z,10.33
2019-02-27T02:40:10.300Z,10.00
2019-02-27T02:46:20.764Z,9.80
2019-02-27T02:49:33.412Z,9.53
2019-02-27T02:55:36.318Z,9.37
2019-02-27T02:59:04.847Z,9.40
2019-02-27T03:02:23.774Z,10.03
2019-02-27T03:05:30.340Z,9.97
2019-02-27T03:08:04.213Z,10.13
2019-02-27T03:11:00.148Z,9.93
2019-02-27T03:14:19.271Z,9.77
2019-02-27T03:17:17.852Z,9.50
2019-02-27T03:20:08.865Z,10.80
2019-02-27T03:23:08.985Z,10.47
2019-02-27T03:26:04.430Z,9.60
2019-02-27T03:29:07.495Z,10.63
2019-02-27T03:32:12.634Z,9.13
2019-02-27T03:35:28.031Z,9.90
2019-02-27T03:38:29.746Z,10.73
2019-02-27T03:41:07.146Z,10.10
2019-02-27T03:44:32.516Z,10.60
2019-02-27T03:47:42.059Z,9.87
2019-02-27T03:50:30.152Z,9.77
2019-02-27T03:53:25.509Z,9.63
2019-02-27T03:56:31.989Z,9.10
2019-02-27T03:59:41.920Z,8.70
2019-02-27T04:02:45.716Z,10.07
2019-02-27T04:06:04.724Z,9.80
2019-02-27T04:08:58.484Z,10.20
2019-02-27T04:11:27.634Z,9.80
2019-02-27T04:17:07.756Z,10.77
2019-02-27T04:19:39.304Z,9.97
2019-02-27T04:22:16.375Z,10.93
2019-02-27T04:24:45.054Z,11.33
2019-02-27T04:27:19.981Z,11.13
2019-02-27T04:29:44.404Z,11.00
2019-02-27T04:32:22.262Z,10.47
2019-02-27T04:34:50.998Z,9.87
2019-02-27T04:37:20.345Z,10.20
2019-02-27T04:39:49.741Z,10.63
2019-02-27T04:42:27.451Z,10.63
2019-02-27T04:44:56.290Z,9.50
2019-02-27T04:47:29.249Z,10.30
2019-02-27T04:49:56.618Z,11.27
2019-02-27T04:52:34.805Z,10.63
2019-02-27T04:55:03.593Z,10.13
2019-02-27T04:57:33.637Z,10.30
2019-02-27T05:00:04.858Z,9.90
2019-02-27T05:05:18.456Z,10.17
2019-02-27T05:07:47.465Z,9.80
2019-02-27T05:10:18.770Z,10.17
2019-02-27T05:12:58.090Z,10.70
2019-02-27T05:15:26.955Z,9.83
2019-02-27T05:17:58.844Z,10.47
2019-02-27T05:20:28.204Z,9.90
2019-02-27T05:23:06.200Z,9.80
2019-02-27T05:25:35.098Z,9.50
2019-02-27T05:28:04.167Z,9.43
2019-02-27T05:30:34.720Z,8.97
2019-02-27T05:33:15.746Z,9.03
2019-02-27T05:35:44.441Z,9.63
2019-02-27T05:38:13.540Z,9.13
2019-02-27T05:40:42.410Z,9.47
2019-02-27T05:43:21.329Z,9.43
2019-02-27T05:45:50.090Z,9.00
2019-02-27T05:48:20.030Z,9.23
2019-02-27T05:50:49.325Z,10.40
2019-02-27T05:53:26.959Z,9.60
2019-02-27T05:55:58.568Z,10.27
2019-02-27T05:58:27.333Z,9.87
2019-02-27T06:00:56.303Z,10.30
2019-02-27T06:03:35.458Z,8.70
2019-02-27T06:06:04.109Z,9.57
2019-02-27T06:08:37.988Z,9.07
2019-02-27T06:11:05.745Z,9.63
2019-02-27T06:13:45.076Z,10.20
2019-02-27T06:16:14.895Z,10.53
2019-02-27T06:18:43.961Z,10.00
2019-02-27T06:21:13.410Z,9.90
2019-02-27T06:23:52.405Z,9.53
2019-02-27T06:26:21.093Z,9.20
2019-02-27T06:28:50.102Z,10.13
2019-02-27T06:31:18.925Z,9.67
2019-02-27T06:33:59.008Z,10.40
2019-02-27T06:36:27.606Z,9.40
2019-02-27T06:39:00.113Z,8.93
2019-02-27T06:41:26.768Z,8.67
2019-02-27T06:44:06.650Z,8.57
2019-02-27T06:46:35.446Z,9.27
2019-02-27T06:49:04.200Z,9.23
2019-02-27T06:51:35.882Z,8.67
2019-02-27T06:54:18.156Z,9.67
2019-02-27T06:56:44.717Z,8.57
2019-02-27T06:59:13.491Z,8.87
2019-02-27T07:01:42.262Z,8.60
2019-02-27T07:04:20.344Z,10.10
2019-02-27T07:06:49.193Z,9.20
2019-02-27T07:09:18.984Z,8.97
2019-02-27T07:11:48.945Z,9.43
2019-02-27T07:14:26.626Z,10.17
2019-02-27T07:16:57.330Z,10.10
2019-02-27T07:19:28.585Z,12.27
2019-02-27T07:21:57.312Z,15.43
2019-02-27T07:24:35.225Z,14.70
2019-02-27T07:27:04.172Z,17.63
2019-02-27T07:29:32.990Z,14.93
2019-02-27T07:32:02.637Z,11.73
2019-02-27T07:34:41.513Z,10.67
2019-02-27T07:37:12.830Z,12.97
2019-02-27T07:39:43.896Z,14.13
2019-02-27T07:42:13.117Z,13.50
2019-02-27T07:44:51.270Z,11.43
2019-02-27T07:47:19.956Z,10.57
2019-02-27T07:49:48.864Z,10.50
2019-02-27T07:52:17.775Z,11.67
2019-02-27T07:54:57.045Z,10.33
2019-02-27T07:57:26.292Z,10.37
2019-02-27T07:59:55.502Z,9.43
2019-02-27T08:02:24.481Z,9.73
2019-02-27T08:05:04.828Z,10.03
2019-02-27T08:07:34.286Z,11.30
2019-02-27T08:10:06.886Z,10.13
2019-02-27T08:12:35.565Z,9.50
2019-02-27T08:15:17.030Z,9.73
2019-02-27T08:17:46.500Z,9.60
2019-02-27T08:20:20.210Z,9.57
2019-02-27T08:22:49.318Z,10.53
2019-02-27T08:25:27.292Z,10.87
2019-02-27T08:27:58.778Z,10.03
2019-02-27T08:30:27.526Z,9.90
2019-02-27T08:32:56.571Z,10.33
2019-02-27T08:35:34.823Z,10.80
2019-02-27T08:38:04.008Z,10.53
2019-02-27T08:40:32.721Z,11.63
2019-02-27T08:43:01.791Z,11.10
2019-02-27T08:45:42.258Z,11.27
2019-02-27T08:48:11.161Z,11.45
2019-02-27T08:50:41.407Z,11.00
2019-02-27T08:53:11.287Z,11.03
2019-02-27T08:55:52.340Z,10.68
2019-02-27T08:58:21.052Z,10.38
2019-02-27T09:00:51.788Z,11.12
2019-02-27T09:03:20.982Z,10.25
2019-02-27T09:08:36.234Z,12.00
2019-02-27T09:11:06.571Z,12.53
2019-02-27T09:13:35.543Z,12.90
2019-02-27T09:16:13.595Z,12.60
2019-02-27T09:18:44.099Z,12.77
2019-02-27T09:21:13.069Z,13.20
2019-02-27T09:23:41.802Z,13.67
2019-02-27T09:26:19.685Z,13.20
2019-02-27T09:28:51.629Z,12.67
2019-02-27T09:31:20.531Z,12.87
2019-02-27T09:33:53.168Z,12.23
2019-02-27T09:36:35.898Z,12.58
2019-02-27T09:39:06.541Z,12.58
2019-02-27T09:41:35.726Z,12.40
2019-02-27T09:44:29.800Z,13.10
2019-02-27T09:47:07.911Z,12.07
2019-02-27T09:49:41.559Z,12.65
2019-02-27T09:52:24.839Z,12.68
2019-02-27T09:54:54.917Z,13.10
2019-02-27T09:57:36.742Z,12.90
2019-02-27T10:00:07.090Z,12.85
2019-02-27T10:02:35.962Z,11.70
2019-02-27T10:05:15.522Z,10.71
2019-02-27T10:07:54.103Z,11.80
2019-02-27T10:11:57.818Z,11.15
2019-02-27T10:17:59.697Z,11.38
2019-02-27T10:20:42.638Z,11.38
2019-02-27T10:23:34.629Z,13.03
2019-02-27T10:26:46.993Z,12.43
2019-02-27T10:29:14.714Z,11.75
2019-02-27T10:31:51.774Z,10.98
2019-02-27T10:34:26.062Z,11.80
2019-02-27T10:37:07.493Z,11.55
2019-02-27T10:39:37.136Z,11.68
2019-02-27T10:42:06.699Z,11.20
2019-02-27T10:44:36.989Z,11.75
2019-02-27T10:49:56.546Z,12.55
2019-02-27T10:52:51.430Z,11.97
2019-02-27T10:55:42.508Z,11.80
2019-02-27T10:58:21.265Z,10.80
2019-02-27T11:00:50.714Z,11.55
2019-02-27T11:03:29.540Z,11.38
2019-02-27T11:06:38.388Z,10.93
2019-02-27T11:09:25.654Z,10.18
2019-02-27T11:12:04.841Z,9.80
2019-02-27T11:14:40.219Z,9.50
2019-02-27T11:19:59.411Z,7.72
2019-02-27T11:22:32.379Z,8.58
2019-02-27T11:25:38.891Z,8.78
2019-02-27T11:28:25.029Z,8.78
2019-02-27T11:31:03.821Z,9.33
2019-02-27T11:33:48.387Z,8.48
2019-02-27T11:39:36.754Z,9.13
2019-02-27T11:42:28.957Z,7.83
2019-02-27T11:48:13.605Z,10.10
2019-02-27T11:51:05.745Z,9.30
2019-02-27T11:53:37.836Z,9.45
2019-02-27T11:56:06.804Z,9.25
2019-02-27T11:58:44.611Z,9.38
2019-02-27T12:01:13.479Z,8.05
2019-02-27T12:03:45.713Z,8.20
2019-02-27T12:06:12.963Z,8.13
2019-02-27T12:08:59.566Z,7.20
2019-02-27T12:11:29.100Z,6.70
2019-02-27T12:13:57.924Z,6.50
2019-02-27T12:16:26.761Z,6.00
2019-02-27T12:19:06.441Z,5.15
2019-02-27T12:21:35.057Z,5.28
2019-02-27T12:24:07.004Z,5.22
2019-02-27T12:26:37.654Z,5.45
2019-02-27T12:31:50.637Z,5.75
2019-02-27T12:34:19.421Z,6.35
2019-02-27T12:36:49.972Z,5.53
2019-02-27T12:39:28.092Z,5.72
2019-02-27T12:41:57.227Z,5.45
2019-02-27T12:44:26.156Z,5.90
2019-02-27T12:46:58.200Z,5.50
2019-02-27T12:52:14.350Z,5.42
2019-02-27T12:54:43.185Z,5.33
2019-02-27T12:57:27.303Z,5.78
2019-02-27T12:59:58.247Z,5.72
2019-02-27T13:02:35.498Z,5.50
2019-02-27T13:04:57.988Z,5.72
2019-02-27T13:10:14.928Z,5.90
2019-02-27T13:12:43.992Z,5.33
2019-02-27T13:15:14.281Z,5.25
2019-02-27T13:20:27.531Z,5.87
2019-02-27T13:23:04.081Z,5.83
2019-02-27T13:25:30.479Z,5.47
2019-02-27T13:28:14.558Z,5.67
2019-02-27T13:30:42.743Z,6.72
2019-02-27T13:33:12.066Z,4.03
2019-02-27T13:35:41.668Z,3.80
2019-02-27T13:38:20.104Z,4.12
2019-02-27T13:40:52.045Z,4.45
2019-02-27T13:43:20.824Z,4.10
2019-02-27T13:45:49.856Z,4.50
2019-02-27T13:48:27.623Z,4.50
2019-02-27T13:51:02.379Z,4.80
2019-02-27T13:53:30.962Z,5.03
2019-02-27T13:55:59.723Z,4.87
2019-02-27T13:58:37.909Z,5.43
2019-02-27T14:01:08.288Z,6.17
2019-02-27T14:03:37.118Z,8.40
2019-02-27T14:06:06.215Z,8.80
2019-02-27T14:08:45.677Z,9.17
2019-02-27T14:11:14.724Z,9.30
2019-02-27T14:13:44.828Z,8.10
2019-02-27T14:16:13.774Z,9.53
2019-02-27T14:18:54.173Z,9.33
2019-02-27T14:21:23.033Z,8.43
2019-02-27T14:23:57.069Z,8.73
2019-02-27T14:26:29.660Z,9.33
2019-02-27T14:29:14.434Z,9.00
2019-02-27T14:32:18.384Z,9.53
2019-02-27T14:34:51.427Z,8.73
2019-02-27T14:37:20.820Z,8.67
2019-02-27T14:40:03.732Z,8.63
2019-02-27T14:42:33.436Z,8.83
2019-02-27T14:45:05.995Z,9.57
2019-02-27T14:47:34.806Z,9.20
2019-02-27T14:50:15.282Z,8.70
2019-02-27T14:52:45.145Z,9.47
2019-02-27T14:55:15.270Z,9.00
2019-02-27T14:57:51.043Z,8.13
2019-02-27T15:00:29.997Z,8.53
2019-02-27T15:02:59.141Z,8.27
2019-02-27T15:05:28.115Z,8.33
2019-02-27T15:07:57.977Z,9.03
2019-02-27T15:10:49.349Z,8.77
2019-02-27T15:13:28.347Z,8.47
2019-02-27T15:16:07.223Z,8.37
2019-02-27T15:18:55.808Z,8.37
2019-02-27T15:21:26.938Z,7.60
2019-02-27T15:24:19.815Z,8.17
2019-02-27T15:27:08.051Z,7.70
2019-02-27T15:29:58.918Z,7.30
2019-02-27T15:33:51.471Z,7.40
2019-02-27T15:35:42.174Z,8.40
2019-02-27T15:38:46.980Z,6.93
2019-02-27T15:41:12.959Z,7.40
2019-02-27T15:43:57.485Z,7.30
2019-02-27T15:46:21.943Z,7.30
2019-02-27T15:48:52.345Z,7.37
2019-02-27T15:54:06.493Z,7.53
2019-02-27T15:56:43.176Z,7.50
2019-02-27T15:59:21.403Z,7.53
2019-02-27T16:01:51.260Z,7.80
2019-02-27T16:04:22.152Z,7.80
2019-02-27T16:06:54.188Z,8.40
2019-02-27T16:16:25.703Z,8.20
2019-02-27T16:19:11.555Z,7.60
2019-02-27T16:21:51.275Z,7.30
2019-02-27T16:24:20.456Z,7.80
2019-02-27T16:27:02.979Z,7.50
2019-02-27T17:20:17.727Z,8.83
2019-02-27T17:22:46.999Z,9.40
2019-02-27T17:25:17.076Z,9.00
2019-02-27T17:27:49.897Z,9.73
2019-02-27T17:33:05.790Z,10.33
2019-02-27T17:35:34.751Z,12.73
2019-02-27T17:38:06.402Z,11.70
2019-02-27T17:40:44.969Z,12.73
2019-02-27T17:43:14.007Z,20.70
2019-02-27T17:45:48.939Z,31.83
2019-02-27T17:48:19.912Z,51.67
2019-02-27T17:50:58.568Z,38.63
2019-02-27T17:53:28.207Z,21.80
2019-02-27T17:55:57.597Z,8.90
2019-02-27T17:58:33.743Z,10.77
2019-02-27T18:01:30.175Z,10.20
2019-02-27T18:04:37.558Z,11.83
2019-02-27T18:07:09.793Z,12.30
2019-02-27T18:09:41.175Z,12.37
2019-02-27T20:13:55.612Z,13.70
2019-02-27T20:16:24.551Z,14.63
2019-02-27T20:18:55.053Z,14.57
2019-02-27T20:21:24.032Z,14.77
2019-02-27T20:24:14.188Z,13.63
2019-02-27T20:26:44.284Z,13.23
2019-02-27T20:29:06.441Z,13.53
2019-02-27T20:31:35.405Z,13.27
2019-02-27T20:36:47.849Z,12.90
2019-02-27T20:39:17.779Z,12.93
2019-02-27T20:41:48.605Z,12.93
2019-02-27T20:44:29.356Z,11.97
2019-02-27T20:46:58.389Z,12.07
2019-02-27T20:49:27.128Z,13.00
2019-02-27T20:51:56.118Z,12.17
2019-02-27T20:57:12.582Z,11.50
2019-02-27T20:59:44.132Z,11.60
2019-02-27T21:02:12.980Z,11.63
2019-02-27T21:04:44.545Z,12.83
2019-02-27T21:07:22.025Z,12.27
2019-02-27T21:09:45.932Z,12.13
2019-02-27T21:12:14.959Z,12.57
2019-02-27T21:14:55.089Z,12.00
2019-02-27T21:17:24.168Z,11.60
2019-02-27T21:19:53.229Z,12.50
2019-02-27T21:22:22.166Z,12.30
2019-02-27T21:25:00.265Z,12.13
2019-02-27T21:27:32.966Z,12.20
2019-02-27T21:29:59.742Z,11.03
2019-02-27T21:32:28.482Z,12.00
2019-02-27T21:35:09.544Z,12.70
2019-02-27T21:37:41.288Z,12.33
2019-02-27T21:40:10.879Z,13.17
2019-02-27T21:42:40.466Z,14.80
2019-02-27T21:45:18.839Z,15.23
2019-02-27T21:47:51.368Z,14.77
2019-02-27T21:50:18.915Z,14.23
2019-02-27T21:52:47.831Z,14.57
2019-02-27T21:55:26.645Z,14.10
2019-02-27T21:57:58.259Z,14.07
2019-02-27T22:00:28.273Z,13.43
2019-02-27T22:02:57.213Z,17.30
2019-02-27T22:05:28.436Z,18.83
2019-02-27T22:07:58.646Z,25.80
2019-02-27T22:10:27.448Z,22.23
2019-02-27T22:12:56.177Z,18.23
2019-02-27T22:15:28.539Z,14.17
2019-02-27T22:17:57.500Z,13.83
2019-02-27T22:20:29.296Z,13.77
2019-02-27T22:22:59.405Z,13.20
2019-02-27T22:25:37.535Z,13.13
2019-02-27T22:28:06.237Z,12.30
2019-02-27T22:30:35.318Z,12.80
2019-02-27T22:33:04.630Z,13.70
2019-02-27T22:35:52.132Z,12.20
2019-02-27T22:38:25.702Z,12.53
2019-02-27T22:40:51.557Z,12.30
2019-02-27T22:43:22.805Z,12.20
2019-02-27T22:46:02.378Z,12.67
2019-02-27T22:48:33.699Z,11.93
2019-02-27T22:51:12.618Z,11.67
2019-02-27T22:53:59.510Z,12.53
2019-02-27T22:56:33.161Z,12.03
2019-02-27T22:59:09.878Z,11.70
2019-02-27T23:01:50.757Z,12.43
2019-02-27T23:04:31.781Z,11.33
2019-02-27T23:07:04.108Z,10.23
2019-02-27T23:09:42.159Z,11.30
2019-02-27T23:12:15.893Z,12.17
2019-02-27T23:14:58.080Z,12.07
2019-02-27T23:17:31.672Z,11.63
2019-02-27T23:20:05.605Z,10.97
2019-02-27T23:22:37.577Z,11.13
2019-02-27T23:25:19.862Z,11.00
2019-02-27T23:27:50.500Z,12.80
2019-02-27T23:30:22.121Z,12.23
2019-02-27T23:32:54.882Z,12.90
2019-02-27T23:35:33.480Z,13.17
2019-02-27T23:38:03.409Z,11.93
2019-02-27T23:40:32.931Z,13.10
2019-02-27T23:43:03.374Z,13.03
2019-02-27T23:45:44.468Z,13.63
2019-02-27T23:48:13.060Z,13.67
2019-02-27T23:50:43.244Z,13.87
2019-02-27T23:53:12.129Z,14.40
2019-02-27T23:55:51.360Z,13.87
2019-02-27T23:58:20.214Z,14.30
